createdAt,value
2023-05-02T00:00:48.327Z,12.21
2023-05-02T00:01:50.165Z,12.20
2023-05-02T00:02:52.081Z,12.19
2023-05-02T00:03:54.173Z,12.19
2023-05-02T00:04:56.115Z,12.18
2023-05-02T00:05:57.941Z,12.17
2023-05-02T00:06:59.835Z,12.17
2023-05-02T00:08:01.627Z,12.17
2023-05-02T00:09:03.485Z,12.16
2023-05-02T00:10:05.303Z,12.15
2023-05-02T00:11:07.143Z,12.12
2023-05-02T00:12:08.957Z,12.15
2023-05-02T00:13:10.754Z,12.14
2023-05-02T00:14:12.624Z,12.14
2023-05-02T00:15:14.429Z,12.13
2023-05-02T00:16:16.390Z,12.13
2023-05-02T00:17:18.315Z,12.12
2023-05-02T00:18:20.291Z,12.11
2023-05-02T00:19:22.241Z,12.10
2023-05-02T00:20:24.035Z,12.10
2023-05-02T00:21:25.958Z,12.09
2023-05-02T00:22:27.751Z,12.08
2023-05-02T00:23:29.574Z,12.07
2023-05-02T00:24:31.414Z,12.05
2023-05-02T00:25:33.231Z,12.04
2023-05-02T00:26:35.030Z,12.01
2023-05-02T00:27:36.848Z,12.03
2023-05-02T00:28:38.688Z,12.03
2023-05-02T00:29:40.526Z,12.01
2023-05-02T00:30:42.472Z,12.00
2023-05-02T00:31:44.313Z,12.00
2023-05-02T00:32:46.304Z,12.00
2023-05-02T00:33:48.088Z,11.99
2023-05-02T00:34:49.925Z,11.98
2023-05-02T00:35:51.748Z,11.98
2023-05-02T00:36:53.565Z,11.97
2023-05-02T00:37:55.363Z,11.98
2023-05-02T00:38:57.185Z,11.99
2023-05-02T00:40:00.491Z,11.98
2023-05-02T00:41:02.599Z,11.99
2023-05-02T00:42:04.421Z,11.99
2023-05-02T00:43:06.246Z,11.99
2023-05-02T00:44:08.052Z,11.97
2023-05-02T00:45:09.914Z,11.97
2023-05-02T00:46:11.854Z,11.97
2023-05-02T00:47:13.636Z,11.97
2023-05-02T00:48:15.540Z,11.96
2023-05-02T00:49:17.391Z,11.96
2023-05-02T00:50:19.277Z,11.96
2023-05-02T00:51:21.073Z,11.96
2023-05-02T00:52:22.874Z,11.95
2023-05-02T00:53:24.678Z,11.95
2023-05-02T00:54:26.516Z,11.93
2023-05-02T00:55:28.356Z,11.93
2023-05-02T00:56:30.169Z,11.92
2023-05-02T00:57:32.003Z,11.91
2023-05-02T00:58:33.789Z,11.90
2023-05-02T00:59:35.614Z,11.89
2023-05-02T01:00:37.470Z,11.88
2023-05-02T01:01:39.328Z,11.88
2023-05-02T01:02:41.283Z,11.88
2023-05-02T01:03:43.381Z,11.86
2023-05-02T01:04:45.354Z,11.87
2023-05-02T01:05:47.212Z,11.86
2023-05-02T01:06:49.092Z,11.85
2023-05-02T01:07:51.054Z,11.85
2023-05-02T01:08:52.900Z,11.83
2023-05-02T01:09:54.713Z,11.81
2023-05-02T01:10:56.565Z,11.82
2023-05-02T01:11:58.382Z,11.81
2023-05-02T01:13:00.211Z,11.81
2023-05-02T01:14:02.010Z,11.79
2023-05-02T01:15:03.856Z,11.79
2023-05-02T01:16:05.915Z,11.78
2023-05-02T01:17:07.799Z,11.78
2023-05-02T01:18:09.661Z,11.76
2023-05-02T01:19:11.540Z,11.76
2023-05-02T01:20:13.558Z,11.75
2023-05-02T01:21:15.395Z,11.74
2023-05-02T01:22:17.219Z,11.74
2023-05-02T01:23:19.017Z,11.73
2023-05-02T01:24:20.813Z,11.72
2023-05-02T01:25:22.626Z,11.69
2023-05-02T01:26:24.470Z,11.69
2023-05-02T01:27:26.278Z,11.69
2023-05-02T01:28:28.079Z,11.67
2023-05-02T01:29:29.890Z,11.68
2023-05-02T01:30:31.700Z,11.67
2023-05-02T01:31:33.560Z,11.67
2023-05-02T01:32:35.382Z,11.66
2023-05-02T01:33:37.180Z,11.66
2023-05-02T01:34:38.986Z,11.65
2023-05-02T01:35:40.791Z,11.65
2023-05-02T01:36:42.641Z,11.63
2023-05-02T01:37:44.463Z,11.63
2023-05-02T01:38:46.267Z,11.62
2023-05-02T01:39:48.090Z,11.61
2023-05-02T01:40:49.904Z,11.60
2023-05-02T01:41:51.752Z,11.59
2023-05-02T01:42:53.596Z,11.59
2023-05-02T01:43:55.387Z,11.60
2023-05-02T01:44:57.198Z,11.59
2023-05-02T01:45:59.017Z,11.58
2023-05-02T01:47:00.906Z,11.57
2023-05-02T01:48:02.916Z,11.55
2023-05-02T01:49:04.690Z,11.56
2023-05-02T01:50:06.718Z,11.55
2023-05-02T01:51:08.514Z,11.54
2023-05-02T01:52:10.364Z,11.52
2023-05-02T01:53:12.186Z,11.53
2023-05-02T01:54:13.997Z,11.50
2023-05-02T01:55:15.834Z,11.52
2023-05-02T01:56:17.841Z,11.52
2023-05-02T01:57:19.707Z,11.52
2023-05-02T01:58:21.535Z,11.50
2023-05-02T01:59:23.327Z,11.50
2023-05-02T02:00:25.129Z,11.50
2023-05-02T02:01:26.979Z,11.50
2023-05-02T02:02:28.896Z,11.49
2023-05-02T02:03:30.726Z,11.48
2023-05-02T02:04:32.572Z,11.48
2023-05-02T02:05:34.556Z,11.46
2023-05-02T02:06:36.402Z,11.47
2023-05-02T02:07:38.320Z,11.47
2023-05-02T02:08:40.134Z,11.46
2023-05-02T02:09:41.945Z,11.46
2023-05-02T02:10:43.873Z,11.45
2023-05-02T02:11:45.673Z,11.44
2023-05-02T02:12:47.501Z,11.43
2023-05-02T02:13:49.306Z,11.43
2023-05-02T02:14:51.133Z,11.43
2023-05-02T02:15:52.950Z,11.43
2023-05-02T02:16:54.840Z,11.42
2023-05-02T02:17:56.726Z,11.42
2023-05-02T02:18:58.523Z,11.42
2023-05-02T02:20:00.550Z,11.41
2023-05-02T02:21:02.694Z,11.41
2023-05-02T02:22:04.525Z,11.41
2023-05-02T02:23:06.419Z,11.39
2023-05-02T02:24:08.203Z,11.39
2023-05-02T02:25:10.008Z,11.39
2023-05-02T02:26:11.925Z,11.38
2023-05-02T02:27:13.753Z,11.38
2023-05-02T02:28:15.586Z,11.40
2023-05-02T02:29:17.402Z,11.39
2023-05-02T02:30:19.207Z,11.38
2023-05-02T02:31:21.176Z,11.39
2023-05-02T02:32:23.198Z,11.39
2023-05-02T02:33:25.094Z,11.39
2023-05-02T02:34:26.915Z,11.38
2023-05-02T02:35:28.727Z,11.38
2023-05-02T02:36:30.547Z,11.39
2023-05-02T02:37:32.339Z,11.39
2023-05-02T02:38:34.203Z,11.39
2023-05-02T02:39:36.021Z,11.40
2023-05-02T02:40:37.817Z,11.40
2023-05-02T02:41:39.649Z,11.42
2023-05-02T02:42:41.458Z,11.43
2023-05-02T02:43:43.366Z,11.42
2023-05-02T02:44:45.170Z,11.42
2023-05-02T02:45:47.007Z,11.43
2023-05-02T02:46:48.991Z,11.43
2023-05-02T02:47:50.925Z,11.43
2023-05-02T02:48:52.960Z,11.44
2023-05-02T02:49:54.769Z,11.44
2023-05-02T02:50:56.592Z,11.45
2023-05-02T02:51:58.421Z,11.44
2023-05-02T02:53:00.230Z,11.45
2023-05-02T02:54:03.237Z,11.44
2023-05-02T02:55:05.699Z,11.45
2023-05-02T02:56:07.921Z,11.45
2023-05-02T02:57:09.623Z,11.45
2023-05-02T02:58:11.440Z,11.47
2023-05-02T02:59:13.273Z,11.48
2023-05-02T03:00:15.105Z,11.50
2023-05-02T03:01:16.989Z,11.51
2023-05-02T03:02:18.943Z,11.51
2023-05-02T03:03:20.807Z,11.55
2023-05-02T03:04:22.796Z,11.55
2023-05-02T03:05:24.599Z,11.56
2023-05-02T03:06:26.436Z,11.58
2023-05-02T03:07:28.332Z,11.60
2023-05-02T03:08:30.133Z,11.63
2023-05-02T03:09:31.972Z,11.64
2023-05-02T03:10:33.768Z,11.68
2023-05-02T03:11:35.573Z,11.70
2023-05-02T03:12:37.441Z,11.71
2023-05-02T03:13:39.261Z,11.73
2023-05-02T03:14:41.105Z,11.76
2023-05-02T03:15:42.942Z,11.79
2023-05-02T03:16:44.815Z,11.81
2023-05-02T03:17:47.346Z,11.83
2023-05-02T03:18:49.194Z,11.86
2023-05-02T03:19:51.078Z,11.87
2023-05-02T03:20:52.882Z,11.89
2023-05-02T03:21:54.677Z,11.92
2023-05-02T03:22:56.481Z,11.95
2023-05-02T03:23:58.306Z,11.98
2023-05-02T03:25:00.172Z,12.00
2023-05-02T03:26:02.083Z,12.02
2023-05-02T03:27:03.861Z,12.06
2023-05-02T03:28:05.689Z,12.08
2023-05-02T03:29:07.497Z,12.09
2023-05-02T03:30:09.633Z,12.11
2023-05-02T03:31:11.462Z,12.15
2023-05-02T03:32:13.391Z,12.17
2023-05-02T03:33:15.311Z,12.20
2023-05-02T03:34:17.296Z,12.23
2023-05-02T03:35:19.143Z,12.27
2023-05-02T03:36:21.059Z,12.31
2023-05-02T03:37:22.867Z,12.34
2023-05-02T03:38:24.671Z,12.38
2023-05-02T03:39:26.484Z,12.42
2023-05-02T03:40:28.347Z,12.45
2023-05-02T03:41:30.141Z,12.48
2023-05-02T03:42:31.976Z,12.54
2023-05-02T03:43:33.791Z,12.59
2023-05-02T03:44:35.607Z,12.64
2023-05-02T03:45:37.462Z,12.66
2023-05-02T03:46:39.335Z,12.71
2023-05-02T03:47:41.306Z,12.75
2023-05-02T03:48:43.186Z,12.79
2023-05-02T03:49:44.994Z,12.82
2023-05-02T03:50:46.845Z,12.87
2023-05-02T03:51:48.650Z,12.91
2023-05-02T03:52:50.454Z,12.91
2023-05-02T03:53:52.272Z,12.92
2023-05-02T03:54:54.079Z,12.92
2023-05-02T03:55:55.921Z,12.95
2023-05-02T03:56:57.732Z,13.00
2023-05-02T03:57:59.593Z,13.05
2023-05-02T03:59:01.376Z,13.11
2023-05-02T04:00:03.290Z,13.16
2023-05-02T04:01:05.263Z,13.22
2023-05-02T04:02:07.145Z,13.28
2023-05-02T04:03:09.042Z,13.33
2023-05-02T04:04:10.915Z,13.38
2023-05-02T04:06:39.275Z,13.50
2023-05-02T04:07:41.128Z,13.57
2023-05-02T04:08:42.955Z,13.61
2023-05-02T04:09:44.779Z,13.64
2023-05-02T04:10:46.990Z,13.70
2023-05-02T04:11:48.858Z,13.75
2023-05-02T04:12:50.671Z,13.79
2023-05-02T04:13:53.362Z,13.85
2023-05-02T04:14:55.312Z,13.89
2023-05-02T04:15:57.138Z,13.94
2023-05-02T04:16:59.042Z,14.00
2023-05-02T04:18:00.983Z,14.05
2023-05-02T04:19:02.814Z,14.12
2023-05-02T04:20:05.488Z,14.14
2023-05-02T04:21:07.676Z,14.17
2023-05-02T04:22:09.524Z,14.19
2023-05-02T04:23:11.347Z,14.22
2023-05-02T04:24:13.193Z,14.24
2023-05-02T04:25:15.011Z,14.26
2023-05-02T04:26:16.794Z,14.26
2023-05-02T04:27:18.649Z,14.27
2023-05-02T04:28:20.461Z,14.33
2023-05-02T04:29:22.309Z,14.36
2023-05-02T04:30:24.183Z,14.39
2023-05-02T04:31:26.081Z,14.42
2023-05-02T04:32:28.080Z,14.42
2023-05-02T04:33:30.115Z,14.40
2023-05-02T04:34:31.903Z,14.37
2023-05-02T04:35:33.738Z,14.36
2023-05-02T04:36:35.569Z,14.35
2023-05-02T04:37:38.057Z,14.36
2023-05-02T04:38:39.937Z,14.35
2023-05-02T04:39:41.746Z,14.30
2023-05-02T04:40:43.597Z,14.30
2023-05-02T04:41:45.441Z,14.31
2023-05-02T04:42:47.550Z,14.32
2023-05-02T04:43:49.356Z,14.36
2023-05-02T04:44:51.173Z,14.41
2023-05-02T04:45:53.107Z,14.42
2023-05-02T04:46:54.962Z,14.43
2023-05-02T04:47:56.881Z,14.44
2023-05-02T04:48:58.654Z,14.45
2023-05-02T04:50:00.804Z,14.47
2023-05-02T04:51:02.909Z,14.49
2023-05-02T04:52:04.720Z,14.54
2023-05-02T04:53:06.566Z,14.54
2023-05-02T04:54:08.382Z,14.53
2023-05-02T04:55:10.196Z,14.55
2023-05-02T04:56:12.102Z,14.56
2023-05-02T04:57:13.912Z,14.59
2023-05-02T04:58:15.757Z,14.60
2023-05-02T04:59:17.565Z,14.59
2023-05-02T05:00:19.396Z,14.60
2023-05-02T05:01:21.365Z,14.60
2023-05-02T05:02:23.305Z,14.60
2023-05-02T05:03:25.249Z,14.63
2023-05-02T05:04:27.068Z,14.62
2023-05-02T05:05:28.903Z,14.64
2023-05-02T05:06:31.985Z,14.65
2023-05-02T05:07:33.855Z,14.66
2023-05-02T05:08:35.717Z,14.66
2023-05-02T05:09:37.538Z,14.66
2023-05-02T05:10:39.452Z,14.68
2023-05-02T05:11:41.252Z,14.70
2023-05-02T05:12:43.068Z,14.71
2023-05-02T05:13:44.905Z,14.74
2023-05-02T05:14:46.727Z,14.78
2023-05-02T05:15:48.544Z,14.82
2023-05-02T05:16:50.668Z,14.87
2023-05-02T05:17:52.738Z,14.91
2023-05-02T05:18:54.696Z,14.92
2023-05-02T05:19:56.528Z,14.92
2023-05-02T05:20:58.456Z,14.93
2023-05-02T05:22:00.465Z,14.94
2023-05-02T05:23:02.275Z,14.97
2023-05-02T05:24:04.131Z,15.01
2023-05-02T05:25:05.952Z,15.06
2023-05-02T05:26:08.058Z,15.09
2023-05-02T05:27:09.874Z,15.10
2023-05-02T05:28:11.705Z,15.13
2023-05-02T05:29:13.542Z,15.16
2023-05-02T05:30:15.854Z,15.15
2023-05-02T05:31:17.775Z,15.13
2023-05-02T05:32:19.760Z,15.13
2023-05-02T05:33:21.661Z,15.12
2023-05-02T05:34:23.565Z,15.13
2023-05-02T05:35:25.356Z,15.13
2023-05-02T05:36:27.160Z,15.14
2023-05-02T05:37:28.975Z,15.14
2023-05-02T05:38:30.810Z,15.13
2023-05-02T05:39:32.672Z,15.17
2023-05-02T05:40:34.466Z,15.17
2023-05-02T05:41:36.278Z,15.19
2023-05-02T05:42:38.088Z,15.17
2023-05-02T05:43:39.895Z,15.12
2023-05-02T05:44:41.744Z,15.11
2023-05-02T05:45:43.569Z,15.10
2023-05-02T05:46:45.554Z,15.10
2023-05-02T05:47:47.575Z,15.10
2023-05-02T05:48:49.449Z,15.08
2023-05-02T05:49:51.515Z,15.08
2023-05-02T05:50:53.361Z,15.07
2023-05-02T05:51:55.189Z,15.05
2023-05-02T05:52:57.019Z,15.07
2023-05-02T05:53:58.839Z,15.09
2023-05-02T05:55:00.699Z,15.10
2023-05-02T05:56:02.497Z,15.11
2023-05-02T05:57:04.292Z,15.11
2023-05-02T05:58:06.094Z,15.12
2023-05-02T05:59:07.911Z,15.11
2023-05-02T06:00:10.377Z,15.10
2023-05-02T06:01:13.252Z,15.09
2023-05-02T06:02:15.114Z,15.08
2023-05-02T06:03:16.997Z,15.09
2023-05-02T06:04:18.916Z,15.11
2023-05-02T06:05:20.759Z,15.14
2023-05-02T06:06:22.618Z,15.16
2023-05-02T06:07:24.569Z,15.15
2023-05-02T06:08:26.384Z,15.13
2023-05-02T06:09:28.202Z,15.09
2023-05-02T06:10:30.165Z,15.07
2023-05-02T06:11:31.971Z,15.05
2023-05-02T06:12:33.778Z,15.04
2023-05-02T06:13:38.618Z,15.02
2023-05-02T06:14:40.465Z,15.00
2023-05-02T06:15:42.332Z,15.00
2023-05-02T06:16:44.142Z,15.02
2023-05-02T06:17:46.057Z,15.04
2023-05-02T06:18:47.822Z,15.06
2023-05-02T06:19:49.630Z,15.07
2023-05-02T06:20:51.470Z,15.08
2023-05-02T06:21:53.301Z,15.08
2023-05-02T06:22:55.107Z,15.08
2023-05-02T06:23:56.936Z,15.08
2023-05-02T06:24:58.738Z,15.05
2023-05-02T06:26:00.581Z,15.04
2023-05-02T06:27:02.393Z,15.06
2023-05-02T06:28:04.200Z,15.08
2023-05-02T06:29:06.001Z,15.08
2023-05-02T06:30:08.033Z,15.05
2023-05-02T06:31:09.965Z,15.06
2023-05-02T06:32:11.800Z,15.06
2023-05-02T06:33:13.723Z,15.05
2023-05-02T06:34:15.633Z,15.07
2023-05-02T06:35:17.435Z,15.11
2023-05-02T06:36:19.288Z,15.14
2023-05-02T06:37:21.090Z,15.17
2023-05-02T06:38:22.910Z,15.20
2023-05-02T06:39:24.760Z,15.22
2023-05-02T06:40:26.568Z,15.25
2023-05-02T06:41:28.392Z,15.26
2023-05-02T06:42:30.213Z,15.27
2023-05-02T06:43:32.047Z,15.27
2023-05-02T06:44:34.994Z,15.27
2023-05-02T06:45:36.822Z,15.30
2023-05-02T06:46:38.712Z,15.32
2023-05-02T06:47:40.916Z,15.35
2023-05-02T06:48:42.864Z,15.37
2023-05-02T06:49:44.734Z,15.35
2023-05-02T06:50:46.534Z,15.34
2023-05-02T06:51:48.381Z,15.34
2023-05-02T06:52:50.193Z,15.35
2023-05-02T06:53:52.020Z,15.37
2023-05-02T06:54:53.848Z,15.38
2023-05-02T06:55:55.655Z,15.40
2023-05-02T06:56:57.512Z,15.38
2023-05-02T06:57:59.321Z,15.40
2023-05-02T06:59:01.141Z,15.41
2023-05-02T07:00:03.360Z,15.41
2023-05-02T07:01:05.605Z,15.42
2023-05-02T07:02:07.414Z,15.44
2023-05-02T07:03:09.255Z,15.41
2023-05-02T07:04:11.256Z,15.41
2023-05-02T07:05:13.184Z,15.45
2023-05-02T07:06:15.211Z,15.47
2023-05-02T07:07:17.034Z,15.47
2023-05-02T07:08:18.852Z,15.50
2023-05-02T07:09:20.663Z,15.52
2023-05-02T07:10:22.705Z,15.53
2023-05-02T07:11:24.519Z,15.55
2023-05-02T07:12:26.390Z,15.60
2023-05-02T07:13:28.176Z,15.61
2023-05-02T07:14:29.994Z,15.61
2023-05-02T07:15:31.875Z,15.64
2023-05-02T07:16:34.552Z,15.68
2023-05-02T07:17:36.586Z,15.72
2023-05-02T07:18:38.412Z,15.74
2023-05-02T07:19:40.243Z,15.76
2023-05-02T07:20:42.080Z,15.75
2023-05-02T07:21:43.975Z,15.74
2023-05-02T07:22:45.833Z,15.72
2023-05-02T07:23:47.662Z,15.68
2023-05-02T07:24:49.459Z,15.66
2023-05-02T07:25:51.279Z,15.66
2023-05-02T07:26:53.189Z,15.70
2023-05-02T07:27:55.030Z,15.71
2023-05-02T07:28:56.860Z,15.74
2023-05-02T07:29:58.922Z,15.80
2023-05-02T07:31:01.012Z,15.84
2023-05-02T07:32:02.889Z,15.89
2023-05-02T07:33:04.864Z,15.94
2023-05-02T07:34:06.660Z,15.98
2023-05-02T07:35:08.478Z,16.01
2023-05-02T07:36:10.480Z,16.03
2023-05-02T07:37:12.305Z,16.04
2023-05-02T07:38:16.970Z,16.05
2023-05-02T07:39:18.586Z,16.06
2023-05-02T07:40:20.383Z,16.07
2023-05-02T07:41:22.217Z,16.06
2023-05-02T07:42:24.049Z,16.05
2023-05-02T07:43:25.874Z,16.03
2023-05-02T07:44:27.701Z,16.02
2023-05-02T07:45:29.523Z,16.04
2023-05-02T07:46:31.717Z,16.05
2023-05-02T07:47:33.606Z,16.07
2023-05-02T07:48:35.531Z,16.09
2023-05-02T07:49:37.348Z,16.12
2023-05-02T07:50:39.172Z,16.11
2023-05-02T07:51:40.998Z,16.12
2023-05-02T07:52:42.815Z,16.11
2023-05-02T07:53:44.677Z,16.10
2023-05-02T07:54:46.492Z,16.09
2023-05-02T07:55:48.315Z,16.09
2023-05-02T07:56:50.138Z,16.11
2023-05-02T07:57:51.958Z,16.16
2023-05-02T07:58:53.805Z,16.19
2023-05-02T07:59:55.607Z,16.23
2023-05-02T08:00:57.523Z,16.23
2023-05-02T08:01:59.371Z,16.22
2023-05-02T08:03:01.310Z,16.20
2023-05-02T08:04:03.396Z,16.21
2023-05-02T08:05:05.396Z,16.23
2023-05-02T08:06:07.578Z,16.26
2023-05-02T08:07:09.565Z,16.27
2023-05-02T08:08:11.385Z,16.25
2023-05-02T08:09:13.626Z,16.25
2023-05-02T08:10:15.592Z,16.26
2023-05-02T08:11:17.600Z,16.28
2023-05-02T08:12:19.407Z,16.29
2023-05-02T08:13:21.270Z,16.27
2023-05-02T08:14:23.122Z,16.28
2023-05-02T08:15:24.934Z,16.28
2023-05-02T08:16:26.870Z,16.28
2023-05-02T08:17:28.725Z,16.27
2023-05-02T08:18:30.489Z,16.25
2023-05-02T08:19:32.235Z,16.23
2023-05-02T08:20:34.117Z,16.22
2023-05-02T08:21:35.914Z,16.21
2023-05-02T08:22:37.901Z,16.21
2023-05-02T08:23:39.690Z,16.22
2023-05-02T08:24:41.531Z,16.25
2023-05-02T08:25:43.348Z,16.29
2023-05-02T08:26:45.168Z,16.31
2023-05-02T08:27:46.906Z,16.34
2023-05-02T08:28:48.682Z,16.35
2023-05-02T08:29:50.539Z,16.35
2023-05-02T08:30:52.349Z,16.33
2023-05-02T08:31:54.286Z,16.33
2023-05-02T08:32:56.267Z,16.30
2023-05-02T08:33:58.157Z,16.31
2023-05-02T08:35:00.004Z,16.32
2023-05-02T08:36:01.821Z,16.30
2023-05-02T08:37:03.628Z,16.29
2023-05-02T08:38:05.432Z,16.27
2023-05-02T08:39:07.240Z,16.28
2023-05-02T08:40:10.017Z,16.28
2023-05-02T08:41:11.836Z,16.29
2023-05-02T08:42:13.650Z,16.28
2023-05-02T08:43:15.474Z,16.28
2023-05-02T08:44:17.267Z,16.29
2023-05-02T08:45:19.115Z,16.32
2023-05-02T08:46:21.077Z,16.31
2023-05-02T08:47:22.925Z,16.32
2023-05-02T08:48:24.850Z,16.33
2023-05-02T08:49:26.661Z,16.32
2023-05-02T08:50:28.604Z,16.32
2023-05-02T08:51:30.422Z,16.31
2023-05-02T08:52:32.226Z,16.29
2023-05-02T08:53:34.251Z,16.28
2023-05-02T08:54:36.063Z,16.29
2023-05-02T08:55:37.920Z,16.29
2023-05-02T08:56:39.761Z,16.27
2023-05-02T08:57:41.599Z,16.29
2023-05-02T08:58:43.396Z,16.30
2023-05-02T08:59:45.202Z,16.30
2023-05-02T09:00:47.078Z,16.30
2023-05-02T09:01:48.986Z,16.28
2023-05-02T09:02:50.969Z,16.27
2023-05-02T09:03:52.876Z,16.26
2023-05-02T09:04:54.717Z,16.26
2023-05-02T09:05:56.569Z,16.26
2023-05-02T09:06:58.597Z,16.25
2023-05-02T09:08:00.409Z,16.26
2023-05-02T09:09:02.239Z,16.27
2023-05-02T09:10:04.152Z,16.27
2023-05-02T09:11:05.998Z,16.27
2023-05-02T09:12:07.830Z,16.28
2023-05-02T09:13:09.638Z,16.29
2023-05-02T09:14:11.722Z,16.29
2023-05-02T09:15:13.652Z,16.29
2023-05-02T09:16:16.932Z,16.30
2023-05-02T09:17:18.714Z,16.31
2023-05-02T09:18:20.538Z,16.33
2023-05-02T09:19:22.339Z,16.33
2023-05-02T09:20:24.139Z,16.35
2023-05-02T09:21:25.872Z,16.34
2023-05-02T09:22:27.678Z,16.36
2023-05-02T09:23:29.499Z,16.37
2023-05-02T09:24:31.305Z,16.38
2023-05-02T09:25:33.104Z,16.39
2023-05-02T09:26:35.032Z,16.40
2023-05-02T09:27:36.876Z,16.43
2023-05-02T09:28:38.691Z,16.45
2023-05-02T09:29:40.478Z,16.49
2023-05-02T09:30:42.326Z,16.51
2023-05-02T09:31:55.505Z,16.53
2023-05-02T09:32:47.904Z,16.55
2023-05-02T09:33:49.806Z,16.56
2023-05-02T09:34:51.600Z,16.58
2023-05-02T09:35:53.401Z,16.61
2023-05-02T09:36:55.252Z,16.66
2023-05-02T09:37:57.075Z,16.69
2023-05-02T09:38:58.876Z,16.71
2023-05-02T09:40:00.690Z,16.76
2023-05-02T09:41:02.499Z,16.78
2023-05-02T09:42:04.347Z,16.76
2023-05-02T09:43:06.152Z,16.75
2023-05-02T09:44:07.953Z,16.73
2023-05-02T09:45:09.748Z,16.73
2023-05-02T09:46:11.674Z,16.74
2023-05-02T09:47:13.564Z,16.75
2023-05-02T09:48:15.397Z,16.77
2023-05-02T09:49:17.179Z,16.78
2023-05-02T09:50:19.007Z,16.78
2023-05-02T09:51:20.964Z,16.79
2023-05-02T09:52:22.790Z,16.80
2023-05-02T09:53:24.581Z,16.81
2023-05-02T09:54:26.398Z,16.83
2023-05-02T09:55:28.222Z,16.84
2023-05-02T09:56:30.048Z,16.83
2023-05-02T09:57:31.901Z,16.82
2023-05-02T09:58:33.696Z,16.79
2023-05-02T09:59:35.529Z,16.79
2023-05-02T10:00:37.331Z,16.77
2023-05-02T10:01:39.333Z,16.78
2023-05-02T10:02:41.396Z,16.81
2023-05-02T10:03:43.354Z,16.85
2023-05-02T10:04:45.428Z,16.89
2023-05-02T10:05:47.256Z,16.90
2023-05-02T10:06:49.105Z,16.92
2023-05-02T10:07:51.041Z,16.98
2023-05-02T10:08:52.858Z,17.03
2023-05-02T10:09:54.671Z,17.05
2023-05-02T10:10:56.508Z,17.09
2023-05-02T10:11:58.320Z,17.10
2023-05-02T10:13:00.174Z,17.08
2023-05-02T10:14:01.992Z,17.08
2023-05-02T10:15:03.874Z,17.10
2023-05-02T10:16:06.193Z,17.13
2023-05-02T10:17:08.064Z,17.15
2023-05-02T10:18:10.088Z,17.18
2023-05-02T10:19:11.933Z,17.19
2023-05-02T10:20:13.996Z,17.21
2023-05-02T10:21:15.764Z,17.21
2023-05-02T10:22:17.684Z,17.20
2023-05-02T10:23:19.555Z,17.20
2023-05-02T10:24:21.346Z,17.18
2023-05-02T10:25:23.154Z,17.17
2023-05-02T10:26:24.984Z,17.18
2023-05-02T10:27:26.824Z,17.19
2023-05-02T10:28:28.677Z,17.19
2023-05-02T10:29:30.501Z,17.19
2023-05-02T10:30:32.397Z,17.18
2023-05-02T10:31:34.279Z,17.19
2023-05-02T10:32:36.129Z,17.17
2023-05-02T10:33:37.953Z,17.19
2023-05-02T10:34:39.762Z,17.20
2023-05-02T10:35:41.563Z,17.20
2023-05-02T10:36:43.372Z,17.19
2023-05-02T10:37:45.241Z,17.18
2023-05-02T10:38:47.767Z,17.18
2023-05-02T10:39:49.567Z,17.20
2023-05-02T10:40:51.368Z,17.17
2023-05-02T10:41:53.439Z,17.22
2023-05-02T10:42:55.210Z,17.25
2023-05-02T10:43:57.073Z,17.23
2023-05-02T10:44:59.024Z,17.21
2023-05-02T10:46:01.081Z,17.21
2023-05-02T10:47:02.983Z,17.17
2023-05-02T10:48:04.954Z,17.18
2023-05-02T10:49:06.775Z,17.17
2023-05-02T10:50:08.790Z,17.17
2023-05-02T10:51:10.580Z,17.18
2023-05-02T10:52:12.391Z,17.22
2023-05-02T10:53:14.258Z,17.26
2023-05-02T10:54:16.103Z,17.28
2023-05-02T10:55:18.041Z,17.31
2023-05-02T10:56:20.065Z,17.31
2023-05-02T10:57:21.904Z,17.33
2023-05-02T10:58:23.783Z,17.33
2023-05-02T10:59:25.597Z,17.31
2023-05-02T11:00:27.426Z,17.28
2023-05-02T11:01:29.389Z,17.28
2023-05-02T11:02:31.684Z,17.27
2023-05-02T11:03:33.602Z,17.28
2023-05-02T11:04:35.416Z,17.31
2023-05-02T11:05:37.220Z,17.33
2023-05-02T11:06:40.252Z,17.35
2023-05-02T11:07:42.137Z,17.38
2023-05-02T11:08:43.939Z,17.41
2023-05-02T11:09:45.685Z,17.40
2023-05-02T11:10:47.505Z,17.40
2023-05-02T11:11:49.333Z,17.37
2023-05-02T11:12:51.143Z,17.35
2023-05-02T11:13:52.943Z,17.34
2023-05-02T11:14:54.790Z,17.32
2023-05-02T11:15:56.621Z,17.32
2023-05-02T11:16:58.611Z,17.33
2023-05-02T11:18:00.554Z,17.35
2023-05-02T11:19:02.355Z,17.38
2023-05-02T11:20:04.285Z,17.39
2023-05-02T11:21:06.107Z,17.41
2023-05-02T11:22:07.949Z,17.40
2023-05-02T11:23:09.729Z,17.41
2023-05-02T11:24:11.545Z,17.42
2023-05-02T11:25:13.410Z,17.43
2023-05-02T11:26:15.305Z,17.43
2023-05-02T11:27:17.104Z,17.46
2023-05-02T11:28:18.912Z,17.48
2023-05-02T11:29:20.738Z,17.47
2023-05-02T11:30:22.579Z,17.48
2023-05-02T11:31:24.374Z,17.47
2023-05-02T11:32:26.292Z,17.48
2023-05-02T11:33:28.379Z,17.45
2023-05-02T11:34:30.235Z,17.43
2023-05-02T11:35:32.065Z,17.42
2023-05-02T11:36:34.017Z,17.44
2023-05-02T11:37:35.965Z,17.45
2023-05-02T11:38:37.834Z,17.47
2023-05-02T11:39:39.917Z,17.51
2023-05-02T11:40:43.739Z,17.54
2023-05-02T11:41:45.561Z,17.54
2023-05-02T11:42:47.382Z,17.55
2023-05-02T11:43:49.201Z,17.56
2023-05-02T11:44:51.000Z,17.57
2023-05-02T11:45:52.880Z,17.58
2023-05-02T11:46:54.646Z,17.58
2023-05-02T11:47:56.520Z,17.55
2023-05-02T11:48:58.636Z,17.54
2023-05-02T11:50:00.467Z,17.53
2023-05-02T11:51:02.383Z,17.52
2023-05-02T11:52:04.318Z,17.51
2023-05-02T11:53:06.148Z,17.52
2023-05-02T11:54:08.011Z,17.54
2023-05-02T11:55:11.116Z,17.56
2023-05-02T11:56:14.197Z,17.59
2023-05-02T11:57:16.009Z,17.61
2023-05-02T11:58:17.960Z,17.62
2023-05-02T11:59:19.767Z,17.59
2023-05-02T12:00:21.728Z,17.60
2023-05-02T12:01:23.954Z,17.59
2023-05-02T12:02:25.860Z,17.58
2023-05-02T12:03:27.949Z,17.59
2023-05-02T12:04:30.210Z,17.58
2023-05-02T12:05:32.110Z,17.58
2023-05-02T12:06:33.984Z,17.58
2023-05-02T12:07:35.753Z,17.60
2023-05-02T12:08:37.568Z,17.61
2023-05-02T12:09:39.383Z,17.61
2023-05-02T12:10:41.282Z,17.59
2023-05-02T12:11:43.712Z,17.60
2023-05-02T12:12:45.578Z,17.61
2023-05-02T12:13:47.404Z,17.61
2023-05-02T12:14:49.195Z,17.61
2023-05-02T12:15:51.097Z,17.61
2023-05-02T12:16:53.057Z,17.62
2023-05-02T12:17:54.896Z,17.62
2023-05-02T12:18:56.749Z,17.62
2023-05-02T12:19:58.594Z,17.64
2023-05-02T12:21:00.423Z,17.64
2023-05-02T12:22:02.240Z,17.63
2023-05-02T12:23:04.082Z,17.65
2023-05-02T12:24:05.871Z,17.67
2023-05-02T12:25:07.778Z,17.69
2023-05-02T12:26:09.783Z,17.71
2023-05-02T12:27:11.615Z,17.73
2023-05-02T12:28:13.423Z,17.73
2023-05-02T12:29:15.220Z,17.72
2023-05-02T12:30:18.014Z,17.74
2023-05-02T12:31:20.071Z,17.74
2023-05-02T12:32:26.913Z,17.74
2023-05-02T12:33:28.222Z,17.73
2023-05-02T12:34:30.023Z,17.74
2023-05-02T12:35:31.829Z,17.78
2023-05-02T12:36:33.679Z,17.81
2023-05-02T12:37:35.590Z,17.81
2023-05-02T12:38:37.405Z,17.81
2023-05-02T12:39:39.630Z,17.83
2023-05-02T12:40:41.445Z,17.85
2023-05-02T12:41:43.286Z,17.86
2023-05-02T12:42:45.183Z,17.88
2023-05-02T12:43:47.060Z,17.89
2023-05-02T12:44:50.694Z,17.90
2023-05-02T12:45:52.519Z,17.85
2023-05-02T12:46:54.345Z,17.83
2023-05-02T12:47:56.240Z,17.81
2023-05-02T12:48:58.115Z,17.80
2023-05-02T12:50:01.643Z,17.79
2023-05-02T12:51:03.557Z,17.82
2023-05-02T12:52:05.501Z,17.83
2023-05-02T12:53:07.537Z,17.86
2023-05-02T12:54:09.345Z,17.88
2023-05-02T12:55:11.137Z,17.90
2023-05-02T12:56:13.540Z,17.90
2023-05-02T12:57:15.374Z,17.88
2023-05-02T12:58:17.208Z,17.87
2023-05-02T12:59:19.169Z,17.86
2023-05-02T13:00:20.967Z,17.86
2023-05-02T13:01:22.843Z,17.86
2023-05-02T13:02:24.805Z,17.85
2023-05-02T13:03:26.973Z,17.83
2023-05-02T13:04:28.825Z,17.81
2023-05-02T13:05:30.650Z,17.80
2023-05-02T13:06:33.279Z,17.78
2023-05-02T13:07:35.559Z,17.80
2023-05-02T13:08:37.414Z,17.80
2023-05-02T13:09:39.115Z,17.79
2023-05-02T13:10:41.053Z,17.79
2023-05-02T13:11:42.846Z,17.79
2023-05-02T13:12:45.116Z,17.80
2023-05-02T13:13:47.617Z,17.76
2023-05-02T13:14:49.466Z,17.75
2023-05-02T13:15:51.336Z,17.73
2023-05-02T13:16:53.239Z,17.74
2023-05-02T13:17:55.255Z,17.75
2023-05-02T13:18:57.272Z,17.73